sensor_id;sensor_type;location;lat;lon;timestamp;P1;durP1;ratioP1;P2;durP2;ratioP2
4051;SDS011;2040;50.924;11.604;2023-11-21T00:00:44;5.27;;;1.60;;
4051;SDS011;2040;50.924;11.604;2023-11-21T00:03:11;4.43;;;1.43;;
4051;SDS011;2040;50.924;11.604;2023-11-21T00:05:39;3.30;;;1.20;;
4051;SDS011;2040;50.924;11.604;2023-11-21T00:08:06;1.17;;;1.00;;
4051;SDS011;2040;50.924;11.604;2023-11-21T00:10:35;1.80;;;1.37;;
4051;SDS011;2040;50.924;11.604;2023-11-21T00:13:03;2.47;;;1.20;;
4051;SDS011;2040;50.924;11.604;2023-11-21T00:15:29;5.10;;;1.97;;
4051;SDS011;2040;50.924;11.604;2023-11-21T00:17:54;1.53;;;1.00;;
4051;SDS011;2040;50.924;11.604;2023-11-21T00:20:20;4.60;;;1.40;;
4051;SDS011;2040;50.924;11.604;2023-11-21T00:22:46;1.20;;;0.83;;
4051;SDS011;2040;50.924;11.604;2023-11-21T00:25:12;7.63;;;1.30;;
4051;SDS011;2040;50.924;11.604;2023-11-21T00:27:42;1.00;;;0.87;;
4051;SDS011;2040;50.924;11.604;2023-11-21T00:30:07;1.20;;;1.10;;
4051;SDS011;2040;50.924;11.604;2023-11-21T00:32:35;2.20;;;1.20;;
4051;SDS011;2040;50.924;11.604;2023-11-21T00:35:01;2.93;;;1.30;;
4051;SDS011;2040;50.924;11.604;2023-11-21T00:37:27;4.77;;;1.07;;
4051;SDS011;2040;50.924;11.604;2023-11-21T00:39:52;4.40;;;1.27;;
4051;SDS011;2040;50.924;11.604;2023-11-21T00:42:18;5.00;;;1.20;;
4051;SDS011;2040;50.924;11.604;2023-11-21T00:44:43;2.30;;;1.20;;
4051;SDS011;2040;50.924;11.604;2023-11-21T00:47:09;4.03;;;1.30;;
4051;SDS011;2040;50.924;11.604;2023-11-21T00:49:34;3.03;;;1.27;;
4051;SDS011;2040;50.924;11.604;2023-11-21T00:52:00;5.00;;;1.47;;
4051;SDS011;2040;50.924;11.604;2023-11-21T00:54:27;5.30;;;1.30;;
4051;SDS011;2040;50.924;11.604;2023-11-21T00:56:52;1.33;;;1.23;;
4051;SDS011;2040;50.924;11.604;2023-11-21T00:59:18;1.50;;;1.40;;
4051;SDS011;2040;50.924;11.604;2023-11-21T01:01:44;4.33;;;1.37;;
4051;SDS011;2040;50.924;11.604;2023-11-21T01:04:09;4.27;;;2.27;;
4051;SDS011;2040;50.924;11.604;2023-11-21T01:06:35;1.93;;;1.47;;
4051;SDS011;2040;50.924;11.604;2023-11-21T01:09:01;1.30;;;1.20;;
4051;SDS011;2040;50.924;11.604;2023-11-21T01:11:29;1.73;;;1.30;;
4051;SDS011;2040;50.924;11.604;2023-11-21T01:13:54;3.07;;;1.40;;
4051;SDS011;2040;50.924;11.604;2023-11-21T01:16:20;2.93;;;1.10;;
4051;SDS011;2040;50.924;11.604;2023-11-21T01:18:45;1.50;;;1.00;;
4051;SDS011;2040;50.924;11.604;2023-11-21T01:21:11;3.27;;;1.87;;
4051;SDS011;2040;50.924;11.604;2023-11-21T01:23:37;2.00;;;1.23;;
4051;SDS011;2040;50.924;11.604;2023-11-21T01:26:02;3.30;;;1.77;;
4051;SDS011;2040;50.924;11.604;2023-11-21T01:28:28;1.80;;;1.17;;
4051;SDS011;2040;50.924;11.604;2023-11-21T01:30:54;1.70;;;1.60;;
4051;SDS011;2040;50.924;11.604;2023-11-21T01:33:21;3.97;;;1.20;;
4051;SDS011;2040;50.924;11.604;2023-11-21T01:35:49;3.73;;;1.17;;
4051;SDS011;2040;50.924;11.604;2023-11-21T01:38:15;3.90;;;1.67;;
4051;SDS011;2040;50.924;11.604;2023-11-21T01:40:42;1.80;;;1.50;;
4051;SDS011;2040;50.924;11.604;2023-11-21T01:43:08;2.50;;;1.70;;
4051;SDS011;2040;50.924;11.604;2023-11-21T01:45:33;2.00;;;1.43;;
4051;SDS011;2040;50.924;11.604;2023-11-21T01:47:59;3.93;;;1.60;;
4051;SDS011;2040;50.924;11.604;2023-11-21T01:50:26;5.03;;;1.17;;
4051;SDS011;2040;50.924;11.604;2023-11-21T01:52:52;2.33;;;1.70;;
4051;SDS011;2040;50.924;11.604;2023-11-21T01:55:18;2.43;;;1.53;;
4051;SDS011;2040;50.924;11.604;2023-11-21T01:57:45;1.40;;;1.30;;
4051;SDS011;2040;50.924;11.604;2023-11-21T02:00:11;5.07;;;1.20;;
4051;SDS011;2040;50.924;11.604;2023-11-21T02:02:44;2.40;;;1.50;;
4051;SDS011;2040;50.924;11.604;2023-11-21T02:05:10;2.23;;;1.80;;
4051;SDS011;2040;50.924;11.604;2023-11-21T02:07:40;2.27;;;1.50;;
4051;SDS011;2040;50.924;11.604;2023-11-21T02:10:07;2.60;;;1.50;;
4051;SDS011;2040;50.924;11.604;2023-11-21T02:12:34;1.97;;;1.30;;
4051;SDS011;2040;50.924;11.604;2023-11-21T02:15:01;10.73;;;2.40;;
4051;SDS011;2040;50.924;11.604;2023-11-21T02:17:30;2.50;;;1.67;;
4051;SDS011;2040;50.924;11.604;2023-11-21T02:19:57;2.90;;;1.20;;
4051;SDS011;2040;50.924;11.604;2023-11-21T02:22:23;2.03;;;1.50;;
4051;SDS011;2040;50.924;11.604;2023-11-21T02:24:55;2.03;;;1.70;;
4051;SDS011;2040;50.924;11.604;2023-11-21T02:27:22;6.43;;;1.70;;
4051;SDS011;2040;50.924;11.604;2023-11-21T02:29:48;3.93;;;1.70;;
4051;SDS011;2040;50.924;11.604;2023-11-21T02:32:14;4.80;;;1.93;;
4051;SDS011;2040;50.924;11.604;2023-11-21T02:34:42;3.37;;;1.43;;
4051;SDS011;2040;50.924;11.604;2023-11-21T02:37:08;1.77;;;1.30;;
4051;SDS011;2040;50.924;11.604;2023-11-21T02:39:35;2.37;;;1.60;;
4051;SDS011;2040;50.924;11.604;2023-11-21T02:42:00;1.40;;;1.30;;
4051;SDS011;2040;50.924;11.604;2023-11-21T02:44:26;4.17;;;1.57;;
4051;SDS011;2040;50.924;11.604;2023-11-21T02:46:51;1.83;;;1.20;;
4051;SDS011;2040;50.924;11.604;2023-11-21T02:49:17;3.07;;;1.17;;
4051;SDS011;2040;50.924;11.604;2023-11-21T02:51:42;1.63;;;1.33;;
4051;SDS011;2040;50.924;11.604;2023-11-21T02:54:08;4.80;;;1.60;;
4051;SDS011;2040;50.924;11.604;2023-11-21T02:56:34;5.10;;;1.50;;
4051;SDS011;2040;50.924;11.604;2023-11-21T02:59:00;2.77;;;1.40;;
4051;SDS011;2040;50.924;11.604;2023-11-21T03:01:26;2.03;;;1.37;;
4051;SDS011;2040;50.924;11.604;2023-11-21T03:03:52;1.70;;;1.10;;
4051;SDS011;2040;50.924;11.604;2023-11-21T03:06:20;5.20;;;1.57;;
4051;SDS011;2040;50.924;11.604;2023-11-21T03:08:46;2.87;;;1.07;;
4051;SDS011;2040;50.924;11.604;2023-11-21T03:11:12;2.77;;;2.00;;
4051;SDS011;2040;50.924;11.604;2023-11-21T03:13:38;1.43;;;1.10;;
4051;SDS011;2040;50.924;11.604;2023-11-21T03:16:06;2.20;;;1.60;;
4051;SDS011;2040;50.924;11.604;2023-11-21T03:18:35;1.87;;;1.77;;
4051;SDS011;2040;50.924;11.604;2023-11-21T03:21:01;6.33;;;1.40;;
4051;SDS011;2040;50.924;11.604;2023-11-21T03:23:27;1.93;;;1.60;;
4051;SDS011;2040;50.924;11.604;2023-11-21T03:25:53;1.77;;;1.27;;
4051;SDS011;2040;50.924;11.604;2023-11-21T03:28:18;4.73;;;1.70;;
4051;SDS011;2040;50.924;11.604;2023-11-21T03:30:44;1.47;;;1.07;;
4051;SDS011;2040;50.924;11.604;2023-11-21T03:33:09;1.50;;;1.40;;
4051;SDS011;2040;50.924;11.604;2023-11-21T03:35:35;4.87;;;2.20;;
4051;SDS011;2040;50.924;11.604;2023-11-21T03:38:01;2.03;;;1.57;;
4051;SDS011;2040;50.924;11.604;2023-11-21T03:40:27;3.17;;;1.40;;
4051;SDS011;2040;50.924;11.604;2023-11-21T03:42:55;7.07;;;1.43;;
4051;SDS011;2040;50.924;11.604;2023-11-21T03:45:20;3.43;;;1.70;;
4051;SDS011;2040;50.924;11.604;2023-11-21T03:47:46;8.00;;;1.70;;
4051;SDS011;2040;50.924;11.604;2023-11-21T03:50:12;1.90;;;1.80;;
4051;SDS011;2040;50.924;11.604;2023-11-21T03:52:37;4.60;;;1.83;;
4051;SDS011;2040;50.924;11.604;2023-11-21T03:55:03;7.50;;;2.20;;
4051;SDS011;2040;50.924;11.604;2023-11-21T03:57:29;2.00;;;1.77;;
4051;SDS011;2040;50.924;11.604;2023-11-21T03:59:55;2.10;;;1.70;;
4051;SDS011;2040;50.924;11.604;2023-11-21T04:02:20;1.57;;;1.47;;
4051;SDS011;2040;50.924;11.604;2023-11-21T04:04:46;1.93;;;1.30;;
4051;SDS011;2040;50.924;11.604;2023-11-21T04:07:12;3.17;;;1.23;;
4051;SDS011;2040;50.924;11.604;2023-11-21T04:09:38;2.40;;;1.50;;
4051;SDS011;2040;50.924;11.604;2023-11-21T04:12:04;1.30;;;1.20;;
4051;SDS011;2040;50.924;11.604;2023-11-21T04:14:30;3.20;;;1.53;;
4051;SDS011;2040;50.924;11.604;2023-11-21T04:16:56;2.40;;;1.30;;
4051;SDS011;2040;50.924;11.604;2023-11-21T04:19:22;3.73;;;1.60;;
4051;SDS011;2040;50.924;11.604;2023-11-21T04:21:47;1.50;;;1.33;;
4051;SDS011;2040;50.924;11.604;2023-11-21T04:24:13;6.63;;;2.27;;
4051;SDS011;2040;50.924;11.604;2023-11-21T04:26:39;2.67;;;1.57;;
4051;SDS011;2040;50.924;11.604;2023-11-21T04:29:04;2.37;;;1.53;;
4051;SDS011;2040;50.924;11.604;2023-11-21T04:31:30;2.87;;;1.50;;
4051;SDS011;2040;50.924;11.604;2023-11-21T04:33:56;2.67;;;1.80;;
4051;SDS011;2040;50.924;11.604;2023-11-21T04:36:22;2.40;;;1.73;;
4051;SDS011;2040;50.924;11.604;2023-11-21T04:38:48;4.20;;;1.80;;
4051;SDS011;2040;50.924;11.604;2023-11-21T04:41:13;3.23;;;1.70;;
4051;SDS011;2040;50.924;11.604;2023-11-21T04:43:39;3.80;;;2.20;;
4051;SDS011;2040;50.924;11.604;2023-11-21T04:46:04;2.80;;;1.97;;
4051;SDS011;2040;50.924;11.604;2023-11-21T04:48:30;1.43;;;1.33;;
4051;SDS011;2040;50.924;11.604;2023-11-21T04:50:55;3.33;;;1.73;;
4051;SDS011;2040;50.924;11.604;2023-11-21T04:53:21;4.07;;;1.83;;
4051;SDS011;2040;50.924;11.604;2023-11-21T04:55:47;6.60;;;2.20;;
4051;SDS011;2040;50.924;11.604;2023-11-21T04:58:13;2.07;;;1.43;;
4051;SDS011;2040;50.924;11.604;2023-11-21T05:00:39;6.77;;;2.10;;
4051;SDS011;2040;50.924;11.604;2023-11-21T05:03:04;4.67;;;2.43;;
4051;SDS011;2040;50.924;11.604;2023-11-21T05:05:32;2.83;;;1.70;;
4051;SDS011;2040;50.924;11.604;2023-11-21T05:07:58;5.30;;;2.30;;
4051;SDS011;2040;50.924;11.604;2023-11-21T05:10:24;3.60;;;2.07;;
4051;SDS011;2040;50.924;11.604;2023-11-21T05:12:50;4.80;;;2.40;;
4051;SDS011;2040;50.924;11.604;2023-11-21T05:15:16;5.80;;;1.80;;
4051;SDS011;2040;50.924;11.604;2023-11-21T05:17:45;6.97;;;2.37;;
4051;SDS011;2040;50.924;11.604;2023-11-21T05:20:11;2.73;;;2.40;;
4051;SDS011;2040;50.924;11.604;2023-11-21T05:22:38;6.47;;;2.10;;
4051;SDS011;2040;50.924;11.604;2023-11-21T05:25:04;7.50;;;1.77;;
4051;SDS011;2040;50.924;11.604;2023-11-21T05:27:32;3.00;;;1.83;;
4051;SDS011;2040;50.924;11.604;2023-11-21T05:29:58;5.80;;;1.93;;
4051;SDS011;2040;50.924;11.604;2023-11-21T05:32:24;3.63;;;1.93;;
4051;SDS011;2040;50.924;11.604;2023-11-21T05:34:50;3.17;;;2.17;;
4051;SDS011;2040;50.924;11.604;2023-11-21T05:37:16;4.40;;;2.30;;
4051;SDS011;2040;50.924;11.604;2023-11-21T05:39:42;4.70;;;2.57;;
4051;SDS011;2040;50.924;11.604;2023-11-21T05:42:08;5.70;;;2.30;;
4051;SDS011;2040;50.924;11.604;2023-11-21T05:44:35;5.40;;;2.17;;
4051;SDS011;2040;50.924;11.604;2023-11-21T05:47:02;3.67;;;2.93;;
4051;SDS011;2040;50.924;11.604;2023-11-21T05:49:28;4.20;;;2.50;;
4051;SDS011;2040;50.924;11.604;2023-11-21T05:51:56;4.73;;;2.67;;
4051;SDS011;2040;50.924;11.604;2023-11-21T05:54:21;2.60;;;2.13;;
4051;SDS011;2040;50.924;11.604;2023-11-21T05:56:48;4.10;;;2.60;;
4051;SDS011;2040;50.924;11.604;2023-11-21T05:59:14;3.70;;;2.50;;
4051;SDS011;2040;50.924;11.604;2023-11-21T06:01:40;3.97;;;2.80;;
4051;SDS011;2040;50.924;11.604;2023-11-21T06:04:05;4.13;;;3.20;;
4051;SDS011;2040;50.924;11.604;2023-11-21T06:06:33;3.87;;;2.23;;
4051;SDS011;2040;50.924;11.604;2023-11-21T06:08:59;4.30;;;2.90;;
4051;SDS011;2040;50.924;11.604;2023-11-21T06:11:25;3.73;;;2.30;;
4051;SDS011;2040;50.924;11.604;2023-11-21T06:13:50;4.70;;;2.80;;
4051;SDS011;2040;50.924;11.604;2023-11-21T06:16:18;7.10;;;2.70;;
4051;SDS011;2040;50.924;11.604;2023-11-21T06:18:45;4.57;;;2.70;;
4051;SDS011;2040;50.924;11.604;2023-11-21T06:21:11;5.40;;;2.60;;
4051;SDS011;2040;50.924;11.604;2023-11-21T06:23:37;11.10;;;2.47;;
4051;SDS011;2040;50.924;11.604;2023-11-21T06:26:02;5.60;;;3.00;;
4051;SDS011;2040;50.924;11.604;2023-11-21T06:28:29;4.93;;;3.30;;
4051;SDS011;2040;50.924;11.604;2023-11-21T06:30:55;3.17;;;2.20;;
4051;SDS011;2040;50.924;11.604;2023-11-21T06:33:22;8.73;;;2.83;;
4051;SDS011;2040;50.924;11.604;2023-11-21T06:35:48;3.60;;;2.40;;
4051;SDS011;2040;50.924;11.604;2023-11-21T06:38:14;4.97;;;3.07;;
4051;SDS011;2040;50.924;11.604;2023-11-21T06:40:40;10.93;;;2.90;;
4051;SDS011;2040;50.924;11.604;2023-11-21T06:43:06;14.90;;;3.87;;
4051;SDS011;2040;50.924;11.604;2023-11-21T06:45:32;5.30;;;3.63;;
4051;SDS011;2040;50.924;11.604;2023-11-21T06:47:59;5.53;;;3.37;;
4051;SDS011;2040;50.924;11.604;2023-11-21T06:50:25;7.57;;;2.93;;
4051;SDS011;2040;50.924;11.604;2023-11-21T06:52:50;11.10;;;4.57;;
4051;SDS011;2040;50.924;11.604;2023-11-21T06:55:16;4.80;;;3.10;;
4051;SDS011;2040;50.924;11.604;2023-11-21T06:57:42;8.27;;;3.20;;
4051;SDS011;2040;50.924;11.604;2023-11-21T07:00:08;6.53;;;4.00;;
4051;SDS011;2040;50.924;11.604;2023-11-21T07:02:34;10.87;;;4.50;;
4051;SDS011;2040;50.924;11.604;2023-11-21T07:05:00;9.67;;;4.07;;
4051;SDS011;2040;50.924;11.604;2023-11-21T07:07:26;8.83;;;4.40;;
4051;SDS011;2040;50.924;11.604;2023-11-21T07:09:56;5.50;;;3.90;;
4051;SDS011;2040;50.924;11.604;2023-11-21T07:12:22;15.57;;;4.97;;
4051;SDS011;2040;50.924;11.604;2023-11-21T07:14:49;11.07;;;4.90;;
4051;SDS011;2040;50.924;11.604;2023-11-21T07:17:14;11.23;;;4.50;;
4051;SDS011;2040;50.924;11.604;2023-11-21T07:19:41;12.03;;;5.00;;
4051;SDS011;2040;50.924;11.604;2023-11-21T07:22:06;14.80;;;5.30;;
4051;SDS011;2040;50.924;11.604;2023-11-21T07:24:33;9.63;;;4.80;;
4051;SDS011;2040;50.924;11.604;2023-11-21T07:26:59;11.73;;;4.60;;
4051;SDS011;2040;50.924;11.604;2023-11-21T07:29:26;6.83;;;4.40;;
4051;SDS011;2040;50.924;11.604;2023-11-21T07:31:52;6.70;;;4.33;;
4051;SDS011;2040;50.924;11.604;2023-11-21T07:34:19;14.70;;;3.70;;
4051;SDS011;2040;50.924;11.604;2023-11-21T07:36:45;11.43;;;4.10;;
4051;SDS011;2040;50.924;11.604;2023-11-21T07:39:11;8.80;;;4.97;;
4051;SDS011;2040;50.924;11.604;2023-11-21T07:41:37;10.77;;;6.10;;
4051;SDS011;2040;50.924;11.604;2023-11-21T07:44:09;8.10;;;4.10;;
4051;SDS011;2040;50.924;11.604;2023-11-21T07:46:35;10.20;;;4.17;;
4051;SDS011;2040;50.924;11.604;2023-11-21T07:49:01;9.37;;;4.43;;
4051;SDS011;2040;50.924;11.604;2023-11-21T07:51:26;5.73;;;3.77;;
4051;SDS011;2040;50.924;11.604;2023-11-21T07:53:52;17.70;;;5.53;;
4051;SDS011;2040;50.924;11.604;2023-11-21T07:56:17;9.30;;;4.60;;
4051;SDS011;2040;50.924;11.604;2023-11-21T07:58:43;5.50;;;4.03;;
4051;SDS011;2040;50.924;11.604;2023-11-21T08:01:09;6.13;;;4.03;;
4051;SDS011;2040;50.924;11.604;2023-11-21T08:03:35;10.03;;;4.40;;
4051;SDS011;2040;50.924;11.604;2023-11-21T08:06:01;7.13;;;4.80;;
4051;SDS011;2040;50.924;11.604;2023-11-21T08:08:28;12.50;;;5.00;;
4051;SDS011;2040;50.924;11.604;2023-11-21T08:10:54;6.60;;;3.90;;
4051;SDS011;2040;50.924;11.604;2023-11-21T08:13:23;6.93;;;4.60;;
4051;SDS011;2040;50.924;11.604;2023-11-21T08:15:56;6.97;;;4.20;;
4051;SDS011;2040;50.924;11.604;2023-11-21T08:18:26;8.50;;;4.63;;
4051;SDS011;2040;50.924;11.604;2023-11-21T08:20:52;7.40;;;4.30;;
4051;SDS011;2040;50.924;11.604;2023-11-21T08:23:20;7.00;;;4.37;;
4051;SDS011;2040;50.924;11.604;2023-11-21T08:25:50;6.77;;;3.30;;
4051;SDS011;2040;50.924;11.604;2023-11-21T08:28:15;9.50;;;4.87;;
4051;SDS011;2040;50.924;11.604;2023-11-21T08:30:41;10.90;;;4.47;;
4051;SDS011;2040;50.924;11.604;2023-11-21T08:33:07;12.40;;;5.27;;
4051;SDS011;2040;50.924;11.604;2023-11-21T08:35:33;7.03;;;4.23;;
4051;SDS011;2040;50.924;11.604;2023-11-21T08:37:59;9.50;;;4.20;;
4051;SDS011;2040;50.924;11.604;2023-11-21T08:40:25;11.70;;;4.80;;
4051;SDS011;2040;50.924;11.604;2023-11-21T08:42:51;9.70;;;4.17;;
4051;SDS011;2040;50.924;11.604;2023-11-21T08:45:18;12.13;;;4.60;;
4051;SDS011;2040;50.924;11.604;2023-11-21T08:47:44;15.23;;;5.17;;
4051;SDS011;2040;50.924;11.604;2023-11-21T08:50:13;10.87;;;4.63;;
4051;SDS011;2040;50.924;11.604;2023-11-21T08:52:40;7.90;;;4.90;;
4051;SDS011;2040;50.924;11.604;2023-11-21T08:55:07;8.93;;;4.73;;
4051;SDS011;2040;50.924;11.604;2023-11-21T08:57:34;7.80;;;4.50;;
4051;SDS011;2040;50.924;11.604;2023-11-21T09:00:03;11.63;;;5.60;;
4051;SDS011;2040;50.924;11.604;2023-11-21T09:02:32;11.67;;;5.53;;
4051;SDS011;2040;50.924;11.604;2023-11-21T09:04:59;9.73;;;5.10;;
4051;SDS011;2040;50.924;11.604;2023-11-21T09:07:28;12.37;;;5.23;;
4051;SDS011;2040;50.924;11.604;2023-11-21T09:09:54;11.27;;;5.80;;
4051;SDS011;2040;50.924;11.604;2023-11-21T09:12:20;10.30;;;5.90;;
4051;SDS011;2040;50.924;11.604;2023-11-21T09:14:46;8.77;;;4.50;;
4051;SDS011;2040;50.924;11.604;2023-11-21T09:17:11;11.50;;;5.40;;
4051;SDS011;2040;50.924;11.604;2023-11-21T09:19:37;15.47;;;5.73;;
4051;SDS011;2040;50.924;11.604;2023-11-21T09:22:03;8.13;;;4.73;;
4051;SDS011;2040;50.924;11.604;2023-11-21T09:24:30;13.33;;;5.30;;
4051;SDS011;2040;50.924;11.604;2023-11-21T09:26:57;10.97;;;4.87;;
4051;SDS011;2040;50.924;11.604;2023-11-21T09:29:23;11.23;;;5.50;;
4051;SDS011;2040;50.924;11.604;2023-11-21T09:31:48;10.50;;;4.47;;
4051;SDS011;2040;50.924;11.604;2023-11-21T09:34:16;8.13;;;4.60;;
4051;SDS011;2040;50.924;11.604;2023-11-21T09:36:44;18.33;;;6.03;;
4051;SDS011;2040;50.924;11.604;2023-11-21T09:39:10;9.50;;;5.10;;
4051;SDS011;2040;50.924;11.604;2023-11-21T09:41:51;13.00;;;5.40;;
4051;SDS011;2040;50.924;11.604;2023-11-21T09:44:29;24.97;;;5.80;;
4051;SDS011;2040;50.924;11.604;2023-11-21T09:47:00;14.53;;;5.23;;
4051;SDS011;2040;50.924;11.604;2023-11-21T09:49:28;10.43;;;5.80;;
4051;SDS011;2040;50.924;11.604;2023-11-21T09:51:59;10.33;;;5.07;;
4051;SDS011;2040;50.924;11.604;2023-11-21T09:54:28;10.33;;;4.77;;
4051;SDS011;2040;50.924;11.604;2023-11-21T09:56:56;10.93;;;4.20;;
4051;SDS011;2040;50.924;11.604;2023-11-21T09:59:23;10.80;;;6.50;;
4051;SDS011;2040;50.924;11.604;2023-11-21T10:01:49;8.17;;;4.73;;
4051;SDS011;2040;50.924;11.604;2023-11-21T10:04:15;8.37;;;5.37;;
4051;SDS011;2040;50.924;11.604;2023-11-21T10:06:42;11.10;;;5.20;;
4051;SDS011;2040;50.924;11.604;2023-11-21T10:09:11;10.33;;;6.10;;
4051;SDS011;2040;50.924;11.604;2023-11-21T10:11:42;11.93;;;6.40;;
4051;SDS011;2040;50.924;11.604;2023-11-21T10:14:11;7.47;;;4.10;;
4051;SDS011;2040;50.924;11.604;2023-11-21T10:16:38;10.03;;;5.60;;
4051;SDS011;2040;50.924;11.604;2023-11-21T10:19:05;11.83;;;5.50;;
4051;SDS011;2040;50.924;11.604;2023-11-21T10:21:33;14.10;;;4.77;;
4051;SDS011;2040;50.924;11.604;2023-11-21T10:23:58;9.07;;;4.20;;
4051;SDS011;2040;50.924;11.604;2023-11-21T10:26:24;10.13;;;5.27;;
4051;SDS011;2040;50.924;11.604;2023-11-21T10:29:00;12.63;;;4.70;;
4051;SDS011;2040;50.924;11.604;2023-11-21T10:31:30;7.60;;;5.50;;
4051;SDS011;2040;50.924;11.604;2023-11-21T10:34:12;14.30;;;6.27;;
4051;SDS011;2040;50.924;11.604;2023-11-21T10:36:39;10.93;;;5.60;;
4051;SDS011;2040;50.924;11.604;2023-11-21T10:39:04;10.40;;;5.03;;
4051;SDS011;2040;50.924;11.604;2023-11-21T10:41:31;16.27;;;6.57;;
4051;SDS011;2040;50.924;11.604;2023-11-21T10:43:57;15.53;;;6.77;;
4051;SDS011;2040;50.924;11.604;2023-11-21T10:46:23;13.80;;;6.40;;
4051;SDS011;2040;50.924;11.604;2023-11-21T10:48:54;12.60;;;6.10;;
4051;SDS011;2040;50.924;11.604;2023-11-21T10:51:21;11.53;;;6.77;;
4051;SDS011;2040;50.924;11.604;2023-11-21T10:53:47;19.83;;;6.40;;
4051;SDS011;2040;50.924;11.604;2023-11-21T10:56:15;21.03;;;7.10;;
4051;SDS011;2040;50.924;11.604;2023-11-21T10:58:46;11.60;;;6.23;;
4051;SDS011;2040;50.924;11.604;2023-11-21T11:01:13;17.97;;;7.47;;
4051;SDS011;2040;50.924;11.604;2023-11-21T11:03:42;12.20;;;6.70;;
4051;SDS011;2040;50.924;11.604;2023-11-21T11:06:09;16.00;;;7.07;;
4051;SDS011;2040;50.924;11.604;2023-11-21T11:08:39;14.60;;;7.97;;
4051;SDS011;2040;50.924;11.604;2023-11-21T11:11:06;17.67;;;7.23;;
4051;SDS011;2040;50.924;11.604;2023-11-21T11:13:32;14.27;;;7.80;;
4051;SDS011;2040;50.924;11.604;2023-11-21T11:15:59;16.60;;;7.80;;
4051;SDS011;2040;50.924;11.604;2023-11-21T11:18:32;13.90;;;7.70;;
4051;SDS011;2040;50.924;11.604;2023-11-21T11:21:05;17.87;;;8.47;;
4051;SDS011;2040;50.924;11.604;2023-11-21T11:23:44;27.73;;;9.50;;
4051;SDS011;2040;50.924;11.604;2023-11-21T11:32:03;16.97;;;9.00;;
4051;SDS011;2040;50.924;11.604;2023-11-21T11:34:48;22.17;;;9.27;;
4051;SDS011;2040;50.924;11.604;2023-11-21T11:37:44;28.57;;;10.20;;
4051;SDS011;2040;50.924;11.604;2023-11-21T11:40:12;22.63;;;10.03;;
4051;SDS011;2040;50.924;11.604;2023-11-21T11:42:38;18.43;;;9.23;;
4051;SDS011;2040;50.924;11.604;2023-11-21T11:45:18;18.00;;;8.20;;
4051;SDS011;2040;50.924;11.604;2023-11-21T11:47:44;20.70;;;9.30;;
4051;SDS011;2040;50.924;11.604;2023-11-21T11:50:13;34.43;;;12.80;;
4051;SDS011;2040;50.924;11.604;2023-11-21T11:52:48;40.57;;;17.27;;
4051;SDS011;2040;50.924;11.604;2023-11-21T11:55:20;31.17;;;12.17;;
4051;SDS011;2040;50.924;11.604;2023-11-21T11:57:53;23.83;;;12.23;;
4051;SDS011;2040;50.924;11.604;2023-11-21T12:02:52;30.00;;;9.83;;
4051;SDS011;2040;50.924;11.604;2023-11-21T12:05:24;23.87;;;9.70;;
4051;SDS011;2040;50.924;11.604;2023-11-21T12:07:56;20.33;;;9.20;;
4051;SDS011;2040;50.924;11.604;2023-11-21T12:10:23;33.90;;;10.00;;
4051;SDS011;2040;50.924;11.604;2023-11-21T12:12:54;16.70;;;8.90;;
4051;SDS011;2040;50.924;11.604;2023-11-21T12:15:22;17.63;;;9.67;;
4051;SDS011;2040;50.924;11.604;2023-11-21T12:17:48;28.90;;;11.67;;
4051;SDS011;2040;50.924;11.604;2023-11-21T12:20:15;19.63;;;7.63;;
4051;SDS011;2040;50.924;11.604;2023-11-21T12:22:48;9.53;;;5.90;;
4051;SDS011;2040;50.924;11.604;2023-11-21T12:25:19;10.17;;;5.43;;
4051;SDS011;2040;50.924;11.604;2023-11-21T12:27:50;12.20;;;5.57;;
4051;SDS011;2040;50.924;11.604;2023-11-21T12:30:18;8.23;;;4.13;;
4051;SDS011;2040;50.924;11.604;2023-11-21T12:32:51;7.17;;;4.17;;
4051;SDS011;2040;50.924;11.604;2023-11-21T12:35:18;8.93;;;4.77;;
4051;SDS011;2040;50.924;11.604;2023-11-21T12:37:46;7.83;;;4.37;;
4051;SDS011;2040;50.924;11.604;2023-11-21T12:40:13;5.10;;;3.30;;
4051;SDS011;2040;50.924;11.604;2023-11-21T12:42:42;9.17;;;4.43;;
4051;SDS011;2040;50.924;11.604;2023-11-21T12:47:42;6.80;;;4.30;;
4051;SDS011;2040;50.924;11.604;2023-11-21T12:50:09;7.37;;;3.90;;
4051;SDS011;2040;50.924;11.604;2023-11-21T12:52:44;7.27;;;4.00;;
4051;SDS011;2040;50.924;11.604;2023-11-21T12:55:17;7.57;;;3.50;;
4051;SDS011;2040;50.924;11.604;2023-11-21T12:57:47;7.50;;;3.20;;
4051;SDS011;2040;50.924;11.604;2023-11-21T13:00:17;9.50;;;3.50;;
4051;SDS011;2040;50.924;11.604;2023-11-21T13:02:56;7.57;;;3.53;;
4051;SDS011;2040;50.924;11.604;2023-11-21T13:05:35;8.83;;;3.70;;
4051;SDS011;2040;50.924;11.604;2023-11-21T13:08:04;10.67;;;4.03;;
4051;SDS011;2040;50.924;11.604;2023-11-21T13:10:33;9.47;;;5.10;;
4051;SDS011;2040;50.924;11.604;2023-11-21T13:13:05;9.23;;;4.93;;
4051;SDS011;2040;50.924;11.604;2023-11-21T13:15:33;13.70;;;6.33;;
4051;SDS011;2040;50.924;11.604;2023-11-21T13:18:01;15.90;;;7.80;;
4051;SDS011;2040;50.924;11.604;2023-11-21T13:20:28;17.40;;;6.90;;
4051;SDS011;2040;50.924;11.604;2023-11-21T13:22:57;18.70;;;7.63;;
4051;SDS011;2040;50.924;11.604;2023-11-21T13:25:27;15.97;;;7.47;;
4051;SDS011;2040;50.924;11.604;2023-11-21T13:27:56;15.63;;;7.07;;
4051;SDS011;2040;50.924;11.604;2023-11-21T13:30:27;18.57;;;7.93;;
4051;SDS011;2040;50.924;11.604;2023-11-21T13:32:58;14.97;;;7.20;;
4051;SDS011;2040;50.924;11.604;2023-11-21T13:35:28;20.13;;;8.40;;
4051;SDS011;2040;50.924;11.604;2023-11-21T13:38:06;14.57;;;7.70;;
4051;SDS011;2040;50.924;11.604;2023-11-21T13:40:33;17.20;;;7.40;;
4051;SDS011;2040;50.924;11.604;2023-11-21T13:43:05;13.33;;;8.07;;
4051;SDS011;2040;50.924;11.604;2023-11-21T13:45:34;15.43;;;8.87;;
4051;SDS011;2040;50.924;11.604;2023-11-21T13:48:07;21.07;;;8.77;;
4051;SDS011;2040;50.924;11.604;2023-11-21T13:50:42;18.97;;;9.50;;
4051;SDS011;2040;50.924;11.604;2023-11-21T13:53:26;17.27;;;9.37;;
4051;SDS011;2040;50.924;11.604;2023-11-21T13:55:51;20.93;;;11.40;;
4051;SDS011;2040;50.924;11.604;2023-11-21T13:58:26;17.50;;;9.80;;
4051;SDS011;2040;50.924;11.604;2023-11-21T14:01:06;19.00;;;9.83;;
4051;SDS011;2040;50.924;11.604;2023-11-21T14:03:41;20.40;;;8.80;;
4051;SDS011;2040;50.924;11.604;2023-11-21T14:06:17;21.77;;;9.87;;
4051;SDS011;2040;50.924;11.604;2023-11-21T14:08:49;16.10;;;8.00;;
4051;SDS011;2040;50.924;11.604;2023-11-21T14:11:15;24.03;;;10.03;;
4051;SDS011;2040;50.924;11.604;2023-11-21T14:13:43;20.33;;;8.70;;
4051;SDS011;2040;50.924;11.604;2023-11-21T14:16:12;14.80;;;6.93;;
4051;SDS011;2040;50.924;11.604;2023-11-21T14:18:39;15.27;;;8.07;;
4051;SDS011;2040;50.924;11.604;2023-11-21T14:21:20;16.63;;;7.80;;
4051;SDS011;2040;50.924;11.604;2023-11-21T14:23:47;22.03;;;9.70;;
4051;SDS011;2040;50.924;11.604;2023-11-21T14:26:13;17.63;;;8.37;;
4051;SDS011;2040;50.924;11.604;2023-11-21T14:28:40;15.50;;;8.37;;
4051;SDS011;2040;50.924;11.604;2023-11-21T14:31:06;23.40;;;9.60;;
4051;SDS011;2040;50.924;11.604;2023-11-21T14:33:32;14.70;;;7.40;;
4051;SDS011;2040;50.924;11.604;2023-11-21T14:35:58;18.50;;;8.60;;
4051;SDS011;2040;50.924;11.604;2023-11-21T14:38:24;16.43;;;7.83;;
4051;SDS011;2040;50.924;11.604;2023-11-21T14:40:49;19.40;;;8.40;;
4051;SDS011;2040;50.924;11.604;2023-11-21T14:43:15;22.00;;;9.10;;
4051;SDS011;2040;50.924;11.604;2023-11-21T14:45:44;14.30;;;7.90;;
4051;SDS011;2040;50.924;11.604;2023-11-21T14:48:09;32.43;;;13.63;;
4051;SDS011;2040;50.924;11.604;2023-11-21T14:50:41;30.37;;;12.90;;
4051;SDS011;2040;50.924;11.604;2023-11-21T14:53:08;29.17;;;13.50;;
4051;SDS011;2040;50.924;11.604;2023-11-21T14:55:34;23.53;;;11.10;;
4051;SDS011;2040;50.924;11.604;2023-11-21T14:58:15;22.33;;;10.20;;
4051;SDS011;2040;50.924;11.604;2023-11-21T15:00:51;21.83;;;9.83;;
4051;SDS011;2040;50.924;11.604;2023-11-21T15:03:22;22.90;;;11.83;;
4051;SDS011;2040;50.924;11.604;2023-11-21T15:06:07;24.37;;;12.60;;
4051;SDS011;2040;50.924;11.604;2023-11-21T15:08:52;17.87;;;10.00;;